Weather History for Morris, IL

Change the Weather History Date:

Sunday, May 12, 2013

  Actual Average (KLOT) Record (KLOT)
Temperature  
Mean Temperature 46 °F 59 °F  
Max Temperature 58 °F 70 °F 87 °F (2011)
Min Temperature 33 °F 49 °F 12 °F (1994)
Degree Days  
Heating Degree Days 20 7  
Month to date heating degree days 99  
Since 1 July heating degree days 6093  
Cooling Degree Days 0 1  
Month to date cooling degree days 10  
Year to date cooling degree days 15  
Moisture  
Dew Point 27 °F    
Average Humidity 51    
Maximum Humidity 85    
Minimum Humidity 26    
Precipitation  
Precipitation 0.00 in 0.12 in 0.88 in (2012)
Month to date precipitation 1.65  
Year to date precipitation 12.09  
Sea Level Pressure  
Sea Level Pressure 30.10 in    
Wind  
Wind Speed 9 mph (NW)    
Max Wind Speed 21 mph    
Max Gust Speed 31 mph    
Visibility 10 miles    
Events      
T = Trace of Precipitation, MM = Missing Value Source: NWS Daily Summary

Daily Weather History Graph

Daily Weather History Graph

Search for Another Location

Airport:

Trip Planner

Search our weather history database for the weather conditions in past years. The results will help you decide how hot, cold, wet, or windy it might be!

Date:

Astronomy

May. 12, 2013 Rise Set
Actual Time 5:37 AM CDT 8:03 PM CDT
Civil Twilight 5:06 AM CDT 8:34 PM CDT
Nautical Twilight 4:27 AM CDT 9:13 PM CDT
Astronomical Twilight 3:44 AM CDT 9:56 PM CDT
Moon 7:32 AM CDT (5/12) 10:30 PM CDT (5/12)
Length of Visible Light 15h 28m
Length of Day
14h 25m
Waxing Crescent, 7% of the Moon is Illuminated
May 12
Waxing Crescent
May 17
First Quarter
May 24
Full
May 31
Last Quarter
Jun 8
New

Hourly Weather History & Observations

Time (CDT) Temp. Windchill Dew Point Humidity Pressure Visibility Wind Dir Wind Speed Gust Speed Precip Events Conditions
12:15 AM 41.4 °F 36.2 °F 32.4 °F 70% 30.06 in 10.0 mi WNW 8.1 mph - N/A   Mostly Cloudy
12:35 AM 41.2 °F 36.0 °F 32.5 °F 71% 30.06 in 10.0 mi WNW 8.1 mph - N/A   Scattered Clouds
12:55 AM 39.6 °F 35.4 °F 32.0 °F 74% 30.07 in 10.0 mi WNW 5.8 mph - N/A   Scattered Clouds
1:15 AM 38.5 °F 34.1 °F 32.0 °F 78% 30.07 in 10.0 mi WNW 5.8 mph - N/A   Clear
1:35 AM 36.9 °F 30.7 °F 32.0 °F 83% 30.07 in 10.0 mi WNW 8.1 mph - N/A   Clear
1:55 AM 36.9 °F 30.7 °F 32.0 °F 83% 30.06 in 10.0 mi WNW 8.1 mph - N/A   Clear
2:15 AM 36.9 °F 30.7 °F 32.0 °F 83% 30.07 in 10.0 mi WNW 8.1 mph - N/A   Clear
2:35 AM 36.9 °F 30.7 °F 31.8 °F 82% 30.07 in 10.0 mi WNW 8.1 mph - N/A   Clear
2:55 AM 36.0 °F 29.6 °F 31.1 °F 82% 30.07 in 10.0 mi WNW 8.1 mph - N/A   Clear
3:15 AM 35.8 °F 29.4 °F 30.9 °F 82% 30.07 in 10.0 mi WNW 8.1 mph - N/A   Clear
3:35 AM 35.8 °F 28.8 °F 30.7 °F 82% 30.07 in 10.0 mi WNW 9.2 mph - N/A   Clear
3:55 AM 35.8 °F 30.9 °F 30.2 °F 80% 30.08 in 10.0 mi NW 5.8 mph - N/A   Clear
4:15 AM 35.6 °F 28.6 °F 30.2 °F 81% 30.08 in 10.0 mi WNW 9.2 mph - N/A   Clear
4:35 AM 35.1 °F 28.6 °F 30.0 °F 82% 30.08 in 10.0 mi WNW 8.1 mph - N/A   Clear
4:55 AM 33.8 °F 27.0 °F 29.3 °F 84% 30.08 in 10.0 mi WNW 8.1 mph - N/A   Clear
5:15 AM 34.2 °F 27.5 °F 29.5 °F 83% 30.08 in 10.0 mi WNW 8.1 mph - N/A   Clear
5:35 AM 34.0 °F 27.2 °F 29.3 °F 83% 30.09 in 10.0 mi WNW 8.1 mph - N/A   Clear
5:55 AM 34.3 °F 29.2 °F 29.7 °F 83% 30.09 in 10.0 mi WNW 5.8 mph - N/A   Clear
6:15 AM 34.2 °F 28.2 °F 30.0 °F 85% 30.09 in 10.0 mi WNW 6.9 mph - N/A   Clear
6:35 AM 36.9 °F 30.7 °F 31.1 °F 80% 30.10 in 10.0 mi WNW 8.1 mph - N/A   Clear
6:55 AM 39.2 °F 32.5 °F 31.6 °F 74% 30.11 in 10.0 mi WNW 10.4 mph - N/A   Clear
7:15 AM 41.4 °F 35.7 °F 31.1 °F 67% 30.11 in 10.0 mi NW 9.2 mph - N/A   Clear
7:35 AM 42.4 °F 36.5 °F 28.0 °F 57% 30.11 in 10.0 mi NW 10.4 mph 19.6 mph N/A   Clear
7:55 AM 43.5 °F 38.3 °F 26.8 °F 52% 30.11 in 10.0 mi NNW 9.2 mph 18.4 mph N/A   Clear
8:15 AM 44.2 °F 39.2 °F 27.0 °F 51% 30.12 in 10.0 mi NNW 9.2 mph 17.3 mph N/A   Clear
8:35 AM 45.3 °F 41.1 °F 26.1 °F 47% 30.12 in 10.0 mi NNW 8.1 mph 18.4 mph N/A   Clear
8:55 AM 46.2 °F 40.8 °F 25.2 °F 44% 30.13 in 10.0 mi NNW 11.5 mph 18.4 mph N/A   Clear
9:15 AM 47.3 °F - 25.9 °F 43% 30.13 in 10.0 mi NW 12.7 mph 19.6 mph N/A   Clear
9:35 AM 47.3 °F - 25.9 °F 43% 30.12 in 10.0 mi NW 12.7 mph 18.4 mph N/A   Clear
9:55 AM 47.8 °F - 26.8 °F 44% 30.13 in 10.0 mi NW 16.1 mph 21.9 mph N/A   Clear
10:15 AM 48.9 °F - 27.1 °F 43% 30.13 in 10.0 mi NNW 9.2 mph 19.6 mph N/A   Clear
10:35 AM 49.3 °F - 26.6 °F 41% 30.14 in 10.0 mi NW 13.8 mph 26.5 mph N/A   Clear
10:55 AM 50.2 °F - 28.2 °F 43% 30.14 in 10.0 mi WNW 12.7 mph 24.2 mph N/A   Clear
11:15 AM 50.2 °F - 27.5 °F 42% 30.13 in 10.0 mi NW 13.8 mph 23.0 mph N/A   Scattered Clouds
11:35 AM 51.8 °F - 27.3 °F 39% 30.13 in 10.0 mi WNW 15.0 mph 20.7 mph N/A   Scattered Clouds
11:55 AM 52.0 °F - 28.0 °F 40% 30.13 in 10.0 mi WNW 13.8 mph 25.3 mph N/A   Scattered Clouds
12:15 PM 52.2 °F - 27.1 °F 38% 30.13 in 10.0 mi NW 18.4 mph 25.3 mph N/A   Scattered Clouds
12:35 PM 51.8 °F - 26.1 °F 37% 30.13 in 10.0 mi NNW 9.2 mph 23.0 mph N/A   Scattered Clouds
12:55 PM 53.6 °F - 26.2 °F 35% 30.12 in 10.0 mi NW 12.7 mph 20.7 mph N/A   Clear
1:15 PM 54.1 °F - 26.2 °F 34% 30.12 in 10.0 mi WNW 15.0 mph 28.8 mph N/A   Scattered Clouds
1:35 PM 55.0 °F - 26.1 °F 33% 30.11 in 10.0 mi WNW 12.7 mph 24.2 mph N/A   Scattered Clouds
1:55 PM 55.0 °F - 26.2 °F 33% 30.11 in 10.0 mi West 20.7 mph 24.2 mph N/A   Mostly Cloudy
2:15 PM 55.9 °F - 25.2 °F 31% 30.11 in 10.0 mi NW 12.7 mph 21.9 mph N/A   Scattered Clouds
2:35 PM 55.9 °F - 25.0 °F 30% 30.11 in 10.0 mi WNW 19.6 mph 26.5 mph N/A   Scattered Clouds
2:55 PM 58.3 °F - 26.8 °F 30% 30.10 in 10.0 mi WNW 13.8 mph 21.9 mph N/A   Scattered Clouds
3:15 PM 56.3 °F - 24.3 °F 29% 30.10 in 10.0 mi NW 8.1 mph 25.3 mph N/A   Scattered Clouds
3:35 PM 57.2 °F - 24.8 °F 29% 30.09 in 10.0 mi WNW 12.7 mph 31.1 mph N/A   Scattered Clouds
3:55 PM 57.2 °F - 22.8 °F 27% 30.09 in 10.0 mi NW 16.1 mph 25.3 mph N/A   Clear
4:15 PM 57.9 °F - 22.8 °F 26% 30.08 in 10.0 mi NW 10.4 mph 24.2 mph N/A   Scattered Clouds
4:35 PM 56.5 °F - 22.5 °F 27% 30.08 in 10.0 mi NW 9.2 mph 24.2 mph N/A   Scattered Clouds
4:55 PM 57.6 °F - 22.8 °F 26% 30.08 in 10.0 mi NW 16.1 mph 21.9 mph N/A   Scattered Clouds
5:15 PM 57.2 °F - 22.6 °F 26% 30.08 in 10.0 mi NW 11.5 mph 20.7 mph N/A   Scattered Clouds
5:35 PM 57.4 °F - 23.9 °F 28% 30.08 in 10.0 mi WNW 16.1 mph 24.2 mph N/A   Scattered Clouds
5:55 PM 57.2 °F - 23.4 °F 27% 30.08 in 10.0 mi WNW 18.4 mph 27.6 mph N/A   Scattered Clouds
6:15 PM 56.5 °F - 22.3 °F 27% 30.07 in 10.0 mi NW 10.4 mph 23.0 mph N/A   Scattered Clouds
6:35 PM 56.3 °F - 23.2 °F 28% 30.07 in 10.0 mi NW 16.1 mph - N/A   Clear
6:55 PM 55.4 °F - 22.3 °F 28% 30.07 in 10.0 mi NNW 9.2 mph 16.1 mph N/A   Clear
7:15 PM 54.9 °F - 22.1 °F 28% 30.07 in 10.0 mi NW 6.9 mph - N/A   Clear
7:35 PM 54.1 °F - 22.5 °F 29% 30.08 in 10.0 mi NNW 6.9 mph - N/A   Clear
7:55 PM 52.9 °F - 23.4 °F 32% 30.08 in 10.0 mi NW 5.8 mph - N/A   Clear
8:15 PM 51.4 °F - 24.3 °F 35% 30.08 in 10.0 mi NNW 4.6 mph - N/A   Clear
8:35 PM 50.9 °F - 24.6 °F 36% 30.09 in 10.0 mi NNW 3.5 mph - N/A   Clear
8:55 PM 49.5 °F - 25.9 °F 40% 30.09 in 10.0 mi NW 3.5 mph - N/A   Clear
9:15 PM 45.3 °F 44.0 °F 26.6 °F 48% 30.10 in 10.0 mi NW 3.5 mph - N/A   Clear
9:35 PM 44.2 °F 42.7 °F 27.3 °F 51% 30.11 in 10.0 mi NW 3.5 mph - N/A   Clear
9:55 PM 45.3 °F 44.0 °F 26.4 °F 48% 30.11 in 10.0 mi West 3.5 mph - N/A   Clear
10:15 PM 45.5 °F 44.2 °F 25.7 °F 46% 30.11 in 10.0 mi West 3.5 mph - N/A   Clear
10:35 PM 44.8 °F - 26.4 °F 49% 30.11 in 10.0 mi Calm Calm - N/A   Clear
10:55 PM 43.0 °F 40.3 °F 26.8 °F 53% 30.11 in 10.0 mi West 4.6 mph - N/A   Clear
11:15 PM 41.7 °F 38.8 °F 28.0 °F 58% 30.11 in 10.0 mi WSW 4.6 mph - N/A   Clear
11:35 PM 42.8 °F 39.3 °F 27.7 °F 55% 30.11 in 10.0 mi WSW 5.8 mph - N/A   Clear
11:55 PM 41.4 °F 38.4 °F 27.9 °F 59% 30.11 in 10.0 mi WSW 4.6 mph - N/A   Clear